Time;durP1;ratioP1;P1;durP2;ratioP2;P2;SDS_P1;SDS_P2;PMS_P1;PMS_P2;Temp;Humidity;BMP_temperature;BMP_pressure;BME280_temperature;BME280_humidity;BME280_pressure;Samples;Min_cycle;Max_cycle;Signal;HPM_P1;HPM_P2
2021/07/01 00:00:03;;;;;;;14.70;9.80;;;;;;;25.51;64.79;94270.56;2992321;39;20047;-74
2021/07/01 00:02:05;;;;;;;12.20;10.00;;;;;;;25.64;64.25;94276.47;2972598;39;20160;-73
2021/07/01 00:04:07;;;;;;;15.10;10.25;;;;;;;25.64;64.19;94277.31;2984048;39;20064;-72
2021/07/01 00:06:09;;;;;;;11.35;10.15;;;;;;;25.53;64.82;94281.84;2993295;39;20107;-72
2021/07/01 00:08:11;;;;;;;12.60;10.50;;;;;;;25.24;65.52;94273.38;2993018;39;20082;-73
2021/07/01 00:10:19;;;;;;;12.27;10.25;;;;;;;25.25;65.55;94272.34;2993450;39;20051;-72
2021/07/01 00:12:21;;;;;;;15.02;10.70;;;;;;;24.95;66.61;94272.91;2993004;39;20311;-71
2021/07/01 00:14:23;;;;;;;12.23;10.05;;;;;;;24.93;66.86;94278.56;2991782;39;20378;-72
2021/07/01 00:16:25;;;;;;;12.97;10.40;;;;;;;24.94;66.92;94274.78;2992316;39;20051;-73
2021/07/01 00:18:27;;;;;;;10.75;9.63;;;;;;;25.06;66.38;94284.50;2992332;39;20315;-74
2021/07/01 00:20:29;;;;;;;12.32;10.30;;;;;;;25.02;66.63;94286.91;2993541;39;20086;-72
2021/07/01 00:22:31;;;;;;;13.43;10.20;;;;;;;25.03;66.92;94279.66;2992922;39;20332;-73
2021/07/01 00:24:33;;;;;;;16.27;11.00;;;;;;;25.08;66.58;94279.69;2981821;39;20361;-72
2021/07/01 00:26:34;;;;;;;16.42;10.23;;;;;;;25.16;65.96;94279.19;2992531;39;20419;-73
2021/07/01 00:28:36;;;;;;;13.02;9.65;;;;;;;25.22;66.10;94272.84;2992334;39;20053;-72
2021/07/01 00:30:38;;;;;;;13.45;10.68;;;;;;;25.24;65.84;94286.00;2992248;39;20074;-72
2021/07/01 00:32:40;;;;;;;11.63;10.43;;;;;;;25.13;66.36;94290.47;2982775;39;20152;-80
2021/07/01 00:34:42;;;;;;;12.10;10.02;;;;;;;24.99;67.01;94281.25;2994054;39;20055;-80
2021/07/01 00:36:44;;;;;;;11.23;9.88;;;;;;;25.12;66.41;94286.97;2999636;39;20050;-78
2021/07/01 00:38:47;;;;;;;13.38;10.20;;;;;;;25.27;65.61;94280.09;2994003;39;20059;-79
2021/07/01 00:40:48;;;;;;;10.32;8.85;;;;;;;25.39;65.49;94278.00;2993539;39;20371;-81
2021/07/01 00:42:50;;;;;;;10.93;9.52;;;;;;;25.53;65.14;94281.00;2989401;39;20135;-82
2021/07/01 00:44:52;;;;;;;15.55;10.48;;;;;;;25.69;64.37;94279.19;2989518;39;20419;-81
2021/07/01 00:46:54;;;;;;;12.40;9.90;;;;;;;25.79;64.07;94270.34;2984242;39;20171;-80
2021/07/01 00:48:56;;;;;;;13.02;10.30;;;;;;;25.87;63.63;94264.47;2988883;39;20132;-80
2021/07/01 00:50:58;;;;;;;11.43;10.23;;;;;;;25.87;63.45;94254.53;2974642;39;20470;-80
2021/07/01 00:53:00;;;;;;;11.10;9.90;;;;;;;25.88;63.65;94263.41;2987719;39;20051;-79
2021/07/01 00:55:02;;;;;;;13.65;11.20;;;;;;;25.88;63.62;94268.78;2982949;39;20595;-79
2021/07/01 00:57:06;;;;;;;12.13;10.50;;;;;;;25.92;63.38;94272.56;2990587;39;20047;-81
2021/07/01 00:59:07;;;;;;;;;;;;;;;25.98;63.14;94270.69;2985875;39;20622;-79
2021/07/01 01:01:09;;;;;;;12.25;10.70;;;;;;;25.74;63.77;94273.84;2982839;39;19934;-79
2021/07/01 01:03:11;;;;;;;16.23;10.98;;;;;;;25.61;64.48;94277.81;2986994;39;20077;-79
2021/07/01 01:05:13;;;;;;;15.38;11.20;;;;;;;25.60;64.61;94280.75;2990649;39;20067;-80
2021/07/01 01:07:15;;;;;;;13.32;10.38;;;;;;;25.38;65.29;94273.69;2990417;39;20077;-81
2021/07/01 01:09:16;;;;;;;15.02;11.35;;;;;;;25.10;66.10;94275.72;2993421;39;20146;-81
2021/07/01 01:11:20;;;;;;;12.00;10.27;;;;;;;24.92;66.71;94282.28;2992917;39;20087;-79
2021/07/01 01:13:25;;;;;;;14.65;10.57;;;;;;;24.62;67.85;94282.09;2983255;39;20055;-80
2021/07/01 01:15:28;;;;;;;13.95;11.40;;;;;;;24.41;68.64;94276.53;2993426;39;20147;-81
2021/07/01 01:17:29;;;;;;;14.40;11.57;;;;;;;24.33;69.05;94283.19;2983275;39;20135;-81
2021/07/01 01:19:32;;;;;;;14.50;10.33;;;;;;;24.57;68.36;94276.72;2993468;39;20063;-79
2021/07/01 01:21:36;;;;;;;12.93;9.95;;;;;;;24.73;67.88;94279.22;2992174;39;20423;-80
2021/07/01 01:23:37;;;;;;;12.85;9.88;;;;;;;24.93;67.13;94281.25;2989357;39;20368;-81
2021/07/01 01:25:41;;;;;;;12.45;10.52;;;;;;;25.01;66.53;94276.44;2993515;39;20067;-78
2021/07/01 01:27:42;;;;;;;;;;;;;;;25.12;66.27;94286.16;2986394;39;20052;-80
2021/07/01 01:29:44;;;;;;;12.70;10.63;;;;;;;24.99;66.48;94279.38;2993603;39;19943;-79
2021/07/01 01:31:46;;;;;;;14.20;10.95;;;;;;;24.75;67.52;94276.28;2992349;39;20102;-80
2021/07/01 01:33:52;;;;;;;11.15;9.93;;;;;;;24.79;67.50;94276.59;2984226;39;20366;-79
2021/07/01 01:35:54;;;;;;;16.77;10.07;;;;;;;24.88;67.04;94278.50;2991616;39;20081;-81
2021/07/01 01:37:56;;;;;;;13.88;9.80;;;;;;;25.01;66.54;94281.81;2994192;39;20054;-80
2021/07/01 01:39:58;;;;;;;12.55;9.60;;;;;;;25.14;65.96;94292.88;2983030;39;20141;-80
2021/07/01 01:41:59;;;;;;;13.25;10.70;;;;;;;25.30;65.55;94282.28;2983743;39;20055;-79
2021/07/01 01:44:01;;;;;;;11.95;10.13;;;;;;;25.39;65.02;94283.38;2998257;39;20054;-80
2021/07/01 01:46:03;;;;;;;11.93;9.82;;;;;;;25.48;64.83;94286.34;2991298;39;20059;-79
2021/07/01 01:48:05;;;;;;;12.48;11.18;;;;;;;25.13;65.88;94285.09;2983142;39;20148;-79
2021/07/01 01:50:07;;;;;;;12.75;11.00;;;;;;;25.06;66.29;94289.84;2986090;39;20054;-80
2021/07/01 01:52:27;;;;;;;13.65;9.85;;;;;;;25.15;66.07;94293.69;2992513;39;20115;-80
2021/07/01 01:54:28;;;;;;;13.50;10.85;;;;;;;25.25;65.82;94292.94;2990794;39;20415;-80
2021/07/01 01:56:36;;;;;;;14.10;10.60;;;;;;;25.22;65.71;94286.25;2992509;39;20085;-81
2021/07/01 01:58:38;;;;;;;14.68;11.35;;;;;;;25.09;66.09;94295.53;2988617;39;20055;-79
2021/07/01 02:00:40;;;;;;;14.43;11.20;;;;;;;24.98;66.55;94293.06;2982910;39;20056;-81
2021/07/01 02:02:42;;;;;;;12.45;11.02;;;;;;;24.88;66.66;94291.91;2992226;39;20506;-80
2021/07/01 02:04:44;;;;;;;15.00;11.02;;;;;;;24.86;66.85;94293.22;2992625;39;20074;-80
2021/07/01 02:06:46;;;;;;;14.00;10.88;;;;;;;24.94;66.96;94290.06;2992741;39;20084;-79
2021/07/01 02:08:48;;;;;;;12.13;10.45;;;;;;;25.08;66.36;94290.41;2995929;39;20452;-80
2021/07/01 02:10:49;;;;;;;12.70;10.43;;;;;;;25.13;66.00;94290.47;2983576;39;20150;-79
2021/07/01 02:12:52;;;;;;;16.73;10.70;;;;;;;25.22;65.59;94288.13;2992985;39;20139;-79
2021/07/01 02:14:54;;;;;;;14.40;11.35;;;;;;;25.33;65.05;94287.91;2974181;39;20063;-80
2021/07/01 02:16:55;;;;;;;13.85;11.45;;;;;;;25.40;64.97;94292.22;2982759;39;20059;-81
2021/07/01 02:18:57;;;;;;;14.32;10.93;;;;;;;25.45;64.72;94300.31;2986168;39;20087;-79
2021/07/01 02:20:59;;;;;;;13.95;10.90;;;;;;;25.49;64.38;94296.84;2985179;39;20131;-81
2021/07/01 02:23:01;;;;;;;13.05;9.93;;;;;;;25.54;64.28;94294.16;2984925;39;20063;-78
2021/07/01 02:25:04;;;;;;;15.80;10.93;;;;;;;25.63;64.01;94302.50;2983632;39;20129;-82
2021/07/01 02:27:06;;;;;;;13.10;10.82;;;;;;;25.63;63.95;94302.50;2975069;39;20093;-79
2021/07/01 02:29:08;;;;;;;13.25;11.07;;;;;;;25.57;64.11;94302.75;2983588;39;20159;-80
2021/07/01 02:31:10;;;;;;;13.63;11.95;;;;;;;24.98;65.92;94320.66;2984859;39;20055;-78
2021/07/01 02:33:12;;;;;;;14.52;11.70;;;;;;;24.86;66.90;94315.47;2982122;39;20058;-80
2021/07/01 02:35:13;;;;;;;14.20;12.43;;;;;;;24.93;66.39;94315.28;2984779;39;20071;-80
2021/07/01 02:37:16;;;;;;;16.90;12.60;;;;;;;24.73;66.98;94308.66;2985737;39;20096;-81
2021/07/01 02:39:18;;;;;;;14.57;11.95;;;;;;;24.75;67.11;94313.78;2986287;39;20051;-80
2021/07/01 02:41:20;;;;;;;16.30;11.93;;;;;;;24.61;67.24;94317.94;2987266;39;20079;-80
2021/07/01 02:43:21;;;;;;;16.50;11.57;;;;;;;24.39;68.09;94313.47;2988235;39;20075;-81
2021/07/01 02:45:23;;;;;;;15.98;12.20;;;;;;;24.27;68.62;94318.19;2988556;39;20444;-81
2021/07/01 02:47:25;;;;;;;14.05;11.50;;;;;;;24.42;67.94;94317.53;2985505;39;20048;-80
2021/07/01 02:49:27;;;;;;;15.65;11.30;;;;;;;24.59;67.33;94312.88;2984552;39;20055;-79
2021/07/01 02:51:29;;;;;;;15.65;10.38;;;;;;;24.79;66.79;94327.47;2985135;39;20432;-79
2021/07/01 02:53:30;;;;;;;14.55;11.82;;;;;;;24.89;66.19;94325.69;2984773;39;20052;-79
2021/07/01 02:55:34;;;;;;;17.08;11.95;;;;;;;24.69;66.55;94333.56;2983316;39;20424;-80
2021/07/01 02:57:37;;;;;;;13.52;11.30;;;;;;;24.75;66.47;94335.22;2982307;39;20066;-79
2021/07/01 02:59:39;;;;;;;17.73;11.45;;;;;;;24.85;66.13;94331.81;2983321;39;20052;-80
2021/07/01 03:01:42;;;;;;;16.98;11.55;;;;;;;24.96;65.59;94330.81;2983930;39;20242;-81
2021/07/01 03:04:15;;;;;;;12.90;10.98;;;;;;;25.08;65.21;94339.47;2983292;39;20120;-83
2021/07/01 03:06:17;;;;;;;14.90;10.95;;;;;;;25.17;64.74;94341.66;2985379;39;20088;-81
2021/07/01 03:08:18;;;;;;;13.88;11.02;;;;;;;25.26;64.32;94351.66;2983159;39;20070;-80
2021/07/01 03:10:20;;;;;;;13.50;11.32;;;;;;;25.29;64.17;94348.47;2972619;39;20048;-80
2021/07/01 03:12:23;;;;;;;12.45;11.02;;;;;;;25.27;64.13;94353.28;2981962;39;20047;-80
2021/07/01 03:14:25;;;;;;;16.67;11.30;;;;;;;25.28;64.09;94351.41;2985347;39;20083;-81
2021/07/01 03:16:27;;;;;;;12.27;10.85;;;;;;;25.31;64.06;94354.38;2992473;39;20043;-79
2021/07/01 03:18:28;;;;;;;14.55;11.40;;;;;;;25.37;63.74;94359.78;2982764;39;20705;-80
2021/07/01 03:20:30;;;;;;;12.07;10.82;;;;;;;25.41;63.70;94363.56;2982129;39;20187;-79
2021/07/01 03:22:32;;;;;;;12.55;10.90;;;;;;;25.43;63.41;94361.44;2992213;39;20055;-80
2021/07/01 03:24:34;;;;;;;11.98;10.77;;;;;;;25.46;63.43;94366.25;2981452;39;20087;-80
2021/07/01 03:26:36;;;;;;;14.00;10.75;;;;;;;25.48;63.19;94374.84;2991761;39;20415;-79
2021/07/01 03:28:38;;;;;;;11.80;10.52;;;;;;;25.50;63.24;94364.66;2997222;39;20054;-80
2021/07/01 03:30:40;;;;;;;12.25;10.98;;;;;;;25.54;63.03;94371.94;2996953;39;20063;-80
2021/07/01 03:32:42;;;;;;;18.38;10.48;;;;;;;25.61;62.74;94373.56;2994012;39;20136;-79
2021/07/01 03:34:44;;;;;;;13.70;11.07;;;;;;;25.64;62.56;94373.88;2996465;39;20268;-81
2021/07/01 03:36:45;;;;;;;14.88;11.27;;;;;;;25.67;62.71;94378.69;2997562;39;20172;-80
2021/07/01 03:38:50;;;;;;;12.35;10.25;;;;;;;25.73;62.42;94388.41;2994260;39;20084;-79
2021/07/01 03:40:52;;;;;;;16.48;10.82;;;;;;;25.76;62.22;94387.06;2996096;39;20079;-81
2021/07/01 03:42:53;;;;;;;12.55;10.75;;;;;;;25.77;62.20;94383.31;2990756;39;20059;-81
2021/07/01 03:44:55;;;;;;;15.57;10.93;;;;;;;25.81;62.08;94378.22;2992385;39;20150;-80
2021/07/01 03:46:58;;;;;;;14.85;10.32;;;;;;;25.87;61.97;94375.28;2979231;39;20427;-81
2021/07/01 03:48:59;;;;;;;14.35;10.85;;;;;;;25.93;61.67;94376.16;2983000;39;20184;-80
2021/07/01 03:51:03;;;;;;;13.65;10.00;;;;;;;25.94;61.67;94373.22;2986924;39;20051;-81
2021/07/01 03:53:05;;;;;;;14.30;10.00;;;;;;;25.98;61.83;94372.69;2989076;39;20464;-80
2021/07/01 03:55:07;;;;;;;15.57;11.13;;;;;;;26.04;61.43;94371.63;2989327;39;20067;-81
2021/07/01 03:57:09;;;;;;;14.35;10.70;;;;;;;26.09;61.25;94369.78;2982204;39;20051;-80
2021/07/01 03:59:12;;;;;;;14.73;10.00;;;;;;;26.14;61.20;94367.09;2992436;39;20124;-80
2021/07/01 04:01:13;;;;;;;14.80;11.40;;;;;;;26.14;61.49;94364.41;2979520;39;20124;-81
2021/07/01 04:03:15;;;;;;;12.27;10.35;;;;;;;26.15;61.48;94357.97;2992489;39;20067;-79
2021/07/01 04:05:17;;;;;;;14.98;10.88;;;;;;;26.20;61.21;94365.25;2980603;39;20075;-79
2021/07/01 04:07:19;;;;;;;16.13;10.37;;;;;;;26.24;61.01;94354.78;2992966;39;20058;-80
2021/07/01 04:09:21;;;;;;;17.27;10.68;;;;;;;26.30;61.05;94343.78;2983082;39;20305;-78
2021/07/01 04:11:23;;;;;;;12.10;10.65;;;;;;;26.36;60.83;94355.34;2991720;39;20070;-80
2021/07/01 04:13:25;;;;;;;11.95;10.48;;;;;;;26.42;60.76;94361.53;2991430;39;20163;-80
2021/07/01 04:15:27;;;;;;;15.07;10.63;;;;;;;26.46;60.61;94358.03;2984741;39;20119;-80
2021/07/01 04:17:29;;;;;;;18.48;11.38;;;;;;;26.54;60.17;94348.63;2996729;39;20142;-78
2021/07/01 04:19:31;;;;;;;15.40;10.00;;;;;;;26.59;60.07;94351.38;2994490;39;20050;-82
2021/07/01 04:21:33;;;;;;;12.57;10.05;;;;;;;26.65;60.04;94349.47;2985502;39;20055;-79
2021/07/01 04:23:34;;;;;;;16.30;9.85;;;;;;;26.70;59.94;94344.94;2992656;39;20075;-79
2021/07/01 04:25:36;;;;;;;12.07;10.02;;;;;;;26.75;59.32;94349.50;2983773;39;20087;-81
2021/07/01 04:27:38;;;;;;;12.27;9.35;;;;;;;26.78;59.20;94343.59;2975398;39;20535;-80
2021/07/01 04:29:40;;;;;;;13.43;9.80;;;;;;;26.79;59.95;94345.19;2982687;39;20155;-80
2021/07/01 04:31:42;;;;;;;14.77;10.48;;;;;;;26.83;59.69;94340.91;2991802;39;20438;-80
2021/07/01 04:33:44;;;;;;;13.75;10.27;;;;;;;26.87;59.31;94341.16;2993165;39;20058;-80
2021/07/01 04:35:48;;;;;;;13.85;10.27;;;;;;;26.92;59.34;94341.16;2993196;39;20097;-82
2021/07/01 04:37:50;;;;;;;12.75;9.07;;;;;;;26.94;58.74;94331.75;2984747;39;20067;-80
2021/07/01 04:39:52;;;;;;;14.95;9.68;;;;;;;27.00;58.44;94332.56;2993748;39;20080;-80
2021/07/01 04:41:54;;;;;;;11.40;9.45;;;;;;;27.05;58.68;94342.50;2992845;39;20059;-80
2021/07/01 04:43:56;;;;;;;12.57;9.38;;;;;;;27.07;58.46;94345.72;2990945;39;20144;-81
2021/07/01 04:45:57;;;;;;;10.88;9.52;;;;;;;27.13;58.53;94350.00;2989344;39;20147;-73
2021/07/01 04:47:59;;;;;;;16.42;9.95;;;;;;;27.18;58.20;94350.78;2982978;39;20436;-72
2021/07/01 04:50:02;;;;;;;11.43;9.40;;;;;;;27.25;57.77;94344.38;2992774;39;20067;-73
2021/07/01 04:52:04;;;;;;;13.60;8.88;;;;;;;27.31;57.61;94345.97;2992853;39;20051;-71
2021/07/01 04:54:06;;;;;;;12.88;9.70;;;;;;;27.36;57.63;94352.16;2974856;39;20109;-73
2021/07/01 04:56:08;;;;;;;11.00;9.32;;;;;;;27.42;57.34;94349.44;2991530;39;20058;-73
2021/07/01 04:58:10;;;;;;;14.37;9.83;;;;;;;27.48;57.00;94351.84;2980654;39;20426;-74
2021/07/01 05:00:12;;;;;;;13.77;9.95;;;;;;;27.53;56.71;94359.09;2992068;39;20324;-74
2021/07/01 05:02:14;;;;;;;13.82;9.38;;;;;;;27.55;56.86;94355.06;2982963;39;20048;-76
2021/07/01 05:04:16;;;;;;;14.23;9.35;;;;;;;27.60;56.13;94364.16;2991875;39;20105;-73
2021/07/01 05:06:21;;;;;;;10.45;9.32;;;;;;;27.63;56.28;94369.81;2992341;39;20055;-74
2021/07/01 05:08:22;;;;;;;13.25;9.18;;;;;;;27.66;55.53;94365.78;2983484;39;20047;-73
2021/07/01 05:10:24;;;;;;;17.48;9.45;;;;;;;27.73;55.36;94367.09;2994044;39;20139;-81
2021/07/01 05:12:26;;;;;;;11.82;8.95;;;;;;;27.76;55.53;94363.06;2994002;39;20067;-81
2021/07/01 05:14:28;;;;;;;16.00;9.95;;;;;;;27.75;55.95;94362.25;2993810;39;20130;-82
2021/07/01 05:16:30;;;;;;;12.90;9.57;;;;;;;27.70;56.04;94356.88;2996768;39;20075;-82
2021/07/01 05:18:32;;;;;;;12.68;9.73;;;;;;;27.45;57.18;94357.78;2983910;39;20063;-81
2021/07/01 05:20:34;;;;;;;15.00;10.35;;;;;;;27.34;57.31;94359.69;2993398;39;20051;-82
2021/07/01 05:22:36;;;;;;;12.55;10.77;;;;;;;27.29;57.34;94359.69;2984199;39;20062;-84
2021/07/01 05:24:38;;;;;;;14.40;10.80;;;;;;;27.23;58.14;94355.38;2993103;39;20125;-81
2021/07/01 05:26:40;;;;;;;15.35;10.60;;;;;;;27.05;58.01;94347.88;2991738;39;20059;-82
2021/07/01 05:28:42;;;;;;;14.52;10.98;;;;;;;26.83;58.80;94346.28;2976942;39;20071;-81
2021/07/01 05:31:04;;;;;;;17.42;11.27;;;;;;;26.60;59.98;94344.91;2991515;39;20039;-80
2021/07/01 05:33:05;;;;;;;19.83;10.32;;;;;;;26.78;59.03;94343.59;2992704;39;20297;-81
2021/07/01 05:35:08;;;;;;;17.83;10.68;;;;;;;27.00;58.83;94340.63;2983335;39;20092;-83
2021/07/01 05:37:09;;;;;;;13.30;10.65;;;;;;;27.18;58.19;94341.94;2983694;39;20405;-83
2021/07/01 05:39:11;;;;;;;13.77;10.20;;;;;;;27.22;57.65;94351.09;2983852;39;20060;-82
2021/07/01 05:41:13;;;;;;;12.02;10.00;;;;;;;27.13;57.68;94336.56;2992777;39;20092;-81
2021/07/01 05:43:15;;;;;;;13.70;10.48;;;;;;;27.29;57.63;94342.75;2991194;39;20100;-73
2021/07/01 05:45:16;;;;;;;16.27;11.00;;;;;;;27.33;57.30;94341.91;2981986;39;20066;-73
2021/07/01 05:47:18;;;;;;;16.50;10.95;;;;;;;27.53;56.80;94337.56;2991967;39;20106;-73
2021/07/01 05:49:20;;;;;;;16.83;10.43;;;;;;;27.50;56.94;94346.19;2983011;39;20144;-73
2021/07/01 05:51:23;;;;;;;13.32;10.38;;;;;;;27.23;57.40;94330.38;2990203;39;20094;-73
2021/07/01 05:53:49;;;;;;;13.60;10.32;;;;;;;27.24;57.39;94330.13;2984135;39;20311;-73
2021/07/01 05:55:51;;;;;;;13.05;10.10;;;;;;;27.11;57.38;94334.16;2990347;39;20163;-73
2021/07/01 05:57:53;;;;;;;13.00;10.65;;;;;;;27.11;57.86;94331.47;2982969;39;20467;-72
2021/07/01 05:59:55;;;;;;;16.33;11.57;;;;;;;27.02;57.80;94332.25;2989082;39;20139;-75
2021/07/01 06:01:56;;;;;;;15.70;12.10;;;;;;;26.67;59.21;94339.28;2974122;39;20347;-73
2021/07/01 06:03:58;;;;;;;14.57;11.35;;;;;;;26.73;59.47;94338.19;2992739;39;20301;-72
2021/07/01 06:06:06;;;;;;;16.00;11.65;;;;;;;26.72;59.11;94334.72;2992812;39;20055;-74
2021/07/01 06:08:09;;;;;;;15.63;12.27;;;;;;;26.83;58.75;94334.72;2990966;39;20510;-73
2021/07/01 06:10:12;;;;;;;16.83;12.10;;;;;;;26.90;58.96;94336.03;2989968;39;20099;-72
2021/07/01 06:12:14;;;;;;;18.67;13.57;;;;;;;26.59;59.24;94337.94;2978961;39;20108;-72
2021/07/01 06:14:18;;;;;;;19.88;13.32;;;;;;;26.61;59.81;94343.03;2983844;39;20176;-72
2021/07/01 06:16:23;;;;;;;21.38;11.63;;;;;;;26.72;59.08;94345.47;2973356;39;20131;-75
2021/07/01 06:18:25;;;;;;;20.90;12.60;;;;;;;26.90;58.01;94352.16;2983459;39;20514;-76
2021/07/01 06:20:28;;;;;;;16.83;12.00;;;;;;;26.85;58.65;94349.50;2982987;39;20058;-73
2021/07/01 06:22:31;;;;;;;15.57;12.65;;;;;;;26.95;57.89;94351.34;2993271;39;20107;-79
2021/07/01 06:24:34;;;;;;;;;;;;;;;26.73;58.21;94354.31;2981742;39;20131;-80
2021/07/01 06:26:36;;;;;;;16.92;11.18;;;;;;;26.81;58.42;94348.41;2983253;39;20032;-82
2021/07/01 06:28:41;;;;;;;27.05;13.52;;;;;;;26.91;58.10;94351.09;2987120;39;20050;-82
2021/07/01 06:30:47;;;;;;;19.05;14.00;;;;;;;26.82;58.15;94350.00;2982976;39;20076;-80
2021/07/01 06:32:51;;;;;;;32.58;13.05;;;;;;;26.95;57.05;94341.44;2988153;39;20056;-78
2021/07/01 06:34:53;;;;;;;23.60;12.13;;;;;;;27.31;56.18;94349.44;2983319;39;20523;-81
2021/07/01 06:37:02;;;;;;;54.55;16.77;;;;;;;27.67;55.85;94349.38;2982990;39;20421;-82
2021/07/01 06:39:05;;;;;;;46.67;16.88;;;;;;;27.88;55.42;94339.34;2971155;39;20148;-81
2021/07/01 06:41:08;;;;;;;34.63;15.45;;;;;;;27.68;55.54;94340.19;2990138;39;20058;-79
2021/07/01 06:43:11;;;;;;;22.25;12.68;;;;;;;27.57;56.47;94338.63;2983351;39;20087;-80
2021/07/01 06:45:14;;;;;;;31.67;14.80;;;;;;;27.73;55.84;94340.19;2986056;39;20075;-80
2021/07/01 06:47:16;;;;;;;35.85;20.55;;;;;;;27.89;55.69;94335.56;2980348;39;20147;-80
2021/07/01 06:49:20;;;;;;;52.70;16.73;;;;;;;28.17;55.48;94339.47;2981907;39;20099;-78
2021/07/01 06:51:22;;;;;;;27.40;14.70;;;;;;;28.19;54.90;94334.59;2969738;39;20096;-79
2021/07/01 06:53:25;;;;;;;57.95;21.02;;;;;;;28.24;54.60;94333.75;2983505;39;20147;-83
2021/07/01 06:55:27;;;;;;;35.75;14.98;;;;;;;28.44;54.27;94332.03;2992676;39;20439;-80
2021/07/01 06:57:29;;;;;;;33.55;14.68;;;;;;;28.58;53.88;94331.13;2983437;39;20047;-78
2021/07/01 06:59:31;;;;;;;36.33;15.23;;;;;;;28.64;52.87;94323.03;2992553;39;20039;-80
2021/07/01 07:01:33;;;;;;;51.35;18.63;;;;;;;28.77;53.67;94325.09;2986142;39;20246;-79
2021/07/01 07:03:48;;;;;;;55.78;17.05;;;;;;;28.95;53.08;94319.00;2985372;39;20043;-80
2021/07/01 07:05:54;;;;;;;63.75;47.45;;;;;;;29.08;52.99;94316.72;2981578;39;20047;-79
2021/07/01 07:07:56;;;;;;;123.45;54.70;;;;;;;29.20;52.55;94317.16;2991912;39;20064;-80
2021/07/01 07:10:02;;;;;;;129.32;47.88;;;;;;;29.27;52.21;94322.22;2991388;39;20128;-80
2021/07/01 07:12:04;;;;;;;54.13;22.38;;;;;;;29.44;51.70;94319.88;2982042;39;20073;-81
2021/07/01 07:14:07;;;;;;;31.30;14.07;;;;;;;29.55;50.64;94315.16;2989947;39;20050;-79
2021/07/01 07:16:09;;;;;;;26.95;16.00;;;;;;;29.59;51.09;94318.91;2979991;39;20124;-81
2021/07/01 07:18:15;;;;;;;24.92;14.80;;;;;;;29.48;51.32;94317.41;2978551;39;20044;-81
2021/07/01 07:20:21;;;;;;;25.10;17.65;;;;;;;29.23;51.51;94315.78;2983370;39;20065;-80
2021/07/01 07:22:27;;;;;;;19.77;12.98;;;;;;;28.91;51.53;94317.97;2985068;39;20043;-81
2021/07/01 07:24:29;;;;;;;19.75;11.90;;;;;;;29.02;51.11;94313.28;2985846;39;20141;-74
2021/07/01 07:26:31;;;;;;;18.40;12.32;;;;;;;28.73;51.52;94316.75;2970023;39;20642;-73
2021/07/01 07:28:37;;;;;;;25.08;12.20;;;;;;;28.64;52.06;94315.75;2991328;39;20430;-74
2021/07/01 07:30:40;;;;;;;18.85;11.48;;;;;;;28.84;52.25;94311.28;2981521;39;20132;-74
2021/07/01 07:32:41;;;;;;;19.92;11.95;;;;;;;29.14;51.75;94304.81;2990794;39;20058;-74
2021/07/01 07:34:48;;;;;;;23.42;12.82;;;;;;;29.06;50.42;94308.09;2979639;39;20047;-75
2021/07/01 07:36:50;;;;;;;25.60;12.23;;;;;;;28.76;50.51;94304.59;2991850;39;20681;-74
2021/07/01 07:38:54;;;;;;;23.20;11.68;;;;;;;28.87;50.21;94300.75;2982380;39;20056;-72
2021/07/01 07:40:56;;;;;;;27.42;12.93;;;;;;;29.03;49.63;94305.97;2974098;39;20148;-73
2021/07/01 07:43:02;;;;;;;22.48;11.10;;;;;;;28.82;48.32;94311.53;2987291;39;20230;-72
2021/07/01 07:45:05;;;;;;;16.75;10.38;;;;;;;28.78;48.44;94297.03;2991284;39;20051;-72
2021/07/01 07:47:11;;;;;;;20.50;11.10;;;;;;;28.82;48.53;94299.97;2982366;39;20070;-73
2021/07/01 07:49:13;;;;;;;18.05;10.68;;;;;;;28.80;48.86;94300.25;2984112;39;20154;-73
2021/07/01 07:51:16;;;;;;;20.60;11.90;;;;;;;28.83;48.93;94294.31;2991874;39;20055;-73
2021/07/01 07:53:23;;;;;;;16.85;10.85;;;;;;;29.11;48.01;94298.09;2987661;39;20070;-73
2021/07/01 07:55:29;;;;;;;25.85;10.85;;;;;;;28.96;48.09;94304.41;2983376;39;20115;-75
2021/07/01 07:57:34;;;;;;;26.13;10.38;;;;;;;29.19;48.09;94302.09;2977598;39;20055;-74
2021/07/01 07:59:38;;;;;;;19.70;10.30;;;;;;;29.14;48.31;94286.72;2982446;39;20315;-74
2021/07/01 08:01:40;;;;;;;;;;;;;;;29.26;48.05;94299.84;2974934;39;20399;-73
2021/07/01 08:03:42;;;;;;;23.95;11.18;;;;;;;29.24;48.13;94293.13;2971425;39;19936;-72
2021/07/01 08:05:44;;;;;;;16.67;9.85;;;;;;;29.23;48.00;94291.50;2983170;39;20396;-74
2021/07/01 08:07:46;;;;;;;16.88;10.13;;;;;;;29.18;47.85;94289.69;2993310;39;20055;-74
2021/07/01 08:09:48;;;;;;;17.42;9.95;;;;;;;29.22;47.11;94296.09;2981739;39;20536;-72
2021/07/01 08:11:50;;;;;;;25.98;10.23;;;;;;;29.23;46.95;94295.00;2983023;39;20148;-73
2021/07/01 08:13:58;;;;;;;18.45;9.45;;;;;;;29.09;46.56;94285.97;2994888;39;20139;-79
2021/07/01 08:16:01;;;;;;;21.25;9.32;;;;;;;29.34;46.52;94285.72;2982258;39;20357;-81
2021/07/01 08:18:05;;;;;;;17.70;8.77;;;;;;;29.34;46.04;94291.13;2982215;39;20127;-79
2021/07/01 08:20:12;;;;;;;16.13;9.40;;;;;;;29.61;45.90;94292.44;2992999;39;20138;-83
2021/07/01 08:22:14;;;;;;;14.70;8.55;;;;;;;29.94;46.07;94285.31;2993433;39;20348;-81
2021/07/01 08:24:16;;;;;;;20.52;9.23;;;;;;;30.16;45.05;94292.81;2985037;39;20056;-81
2021/07/01 08:26:18;;;;;;;14.18;8.35;;;;;;;30.35;44.15;94284.75;2993080;39;20488;-82
2021/07/01 08:28:21;;;;;;;12.77;8.10;;;;;;;30.53;42.93;94282.31;2975606;39;20112;-81
2021/07/01 08:30:25;;;;;;;26.42;10.63;;;;;;;30.42;43.30;94282.47;2981355;39;20505;-80
2021/07/01 08:32:28;;;;;;;19.10;8.70;;;;;;;30.48;42.31;94283.19;2983127;39;20139;-79
2021/07/01 08:34:30;;;;;;;24.75;9.23;;;;;;;30.18;42.49;94282.53;2975871;39;20140;-81
2021/07/01 08:36:34;;;;;;;24.80;8.13;;;;;;;29.96;42.32;94282.28;2982661;39;20103;-81
2021/07/01 08:38:36;;;;;;;17.95;7.57;;;;;;;29.87;42.94;94281.34;2991918;39;20065;-82
2021/07/01 08:40:39;;;;;;;23.02;8.23;;;;;;;30.16;41.37;94271.22;2975501;39;20413;-81
2021/07/01 08:42:41;;;;;;;17.92;6.90;;;;;;;30.32;40.93;94282.63;2981927;39;20063;-80
2021/07/01 08:44:44;;;;;;;21.95;7.00;;;;;;;30.34;41.49;94269.63;2993100;39;20116;-81
2021/07/01 08:46:52;;;;;;;19.13;7.10;;;;;;;30.30;39.12;94275.91;2983132;39;20136;-73
2021/07/01 08:48:59;;;;;;;17.30;6.80;;;;;;;30.07;39.72;94267.53;2981225;39;20074;-73
2021/07/01 08:51:02;;;;;;;25.25;7.43;;;;;;;29.75;39.24;94265.56;2992504;39;20051;-73
2021/07/01 08:53:04;;;;;;;;;;;;;;;29.79;38.72;94263.88;2983578;39;20060;-74
2021/07/01 08:55:07;;;;;;;18.98;6.30;;;;;;;29.75;38.93;94260.16;2992374;39;19967;-73
2021/07/01 08:57:15;;;;;;;14.00;5.72;;;;;;;29.77;37.38;94256.09;2980798;39;20160;-74
2021/07/01 08:59:19;;;;;;;15.18;5.50;;;;;;;29.86;37.43;94260.81;2990458;39;20104;-74
2021/07/01 09:01:22;;;;;;;13.77;5.20;;;;;;;30.30;37.14;94252.38;2992089;39;20046;-75
2021/07/01 09:03:25;;;;;;;15.02;6.32;;;;;;;30.49;36.80;94251.56;2981529;39;20059;-73
2021/07/01 09:05:28;;;;;;;19.98;5.93;;;;;;;30.58;36.82;94252.50;2983138;39;20089;-73
2021/07/01 09:07:34;;;;;;;18.80;5.82;;;;;;;30.84;36.68;94252.84;2992525;39;20322;-73
2021/07/01 09:09:37;;;;;;;16.33;5.82;;;;;;;30.60;36.21;94247.59;2993160;39;20057;-75
2021/07/01 09:11:40;;;;;;;14.10;5.53;;;;;;;30.52;36.42;94251.75;2992700;39;20074;-72
2021/07/01 09:13:46;;;;;;;17.02;5.57;;;;;;;30.26;35.79;94251.31;2983143;39;20443;-74
2021/07/01 09:15:49;;;;;;;21.92;5.45;;;;;;;30.10;35.81;94248.06;2991949;39;20047;-74
2021/07/01 09:17:52;;;;;;;19.88;6.57;;;;;;;30.17;36.12;94245.78;2989080;39;20087;-74
2021/07/01 09:19:56;;;;;;;22.23;5.72;;;;;;;30.45;34.61;94243.22;2984133;39;20423;-73
2021/07/01 09:22:00;;;;;;;20.60;6.88;;;;;;;30.70;35.03;94241.22;2983013;39;20115;-74
2021/07/01 09:24:03;;;;;;;19.15;5.97;;;;;;;30.61;36.14;94238.41;2992724;39;20063;-72
2021/07/01 09:26:08;;;;;;;16.50;5.68;;;;;;;30.65;35.51;94244.00;2982586;39;20147;-72
2021/07/01 09:28:10;;;;;;;19.83;5.93;;;;;;;30.90;35.58;94231.97;2982670;39;20051;-74